createdAt,value
2019-01-27T00:02:18.459Z,46.08
2019-01-27T00:07:21.927Z,46.21
2019-01-27T00:12:25.384Z,46.34
2019-01-27T00:17:29.013Z,46.37
2019-01-27T00:22:32.475Z,46.53
2019-01-27T00:27:35.934Z,46.57
2019-01-27T00:32:39.396Z,46.67
2019-01-27T00:37:43.029Z,46.71
2019-01-27T00:42:46.567Z,46.78
2019-01-27T00:47:50.025Z,46.84
2019-01-27T00:52:53.488Z,46.88
2019-01-27T00:57:56.956Z,46.90
2019-01-27T01:03:00.438Z,46.92
2019-01-27T01:08:05.538Z,46.94
2019-01-27T01:13:09.065Z,46.93
2019-01-27T01:18:12.705Z,46.92
2019-01-27T01:23:16.165Z,46.96
2019-01-27T01:28:19.633Z,46.98
2019-01-27T01:33:23.096Z,47.00
2019-01-27T01:38:26.553Z,47.02
2019-01-27T01:43:30.014Z,47.03
2019-01-27T01:48:33.646Z,47.03
2019-01-27T01:53:37.105Z,47.07
2019-01-27T01:58:40.574Z,47.08
2019-01-27T02:03:44.026Z,47.14
2019-01-27T02:08:47.489Z,47.18
2019-01-27T02:13:50.950Z,47.19
2019-01-27T02:18:54.419Z,47.20
2019-01-27T02:23:57.961Z,47.20
2019-01-27T02:29:01.426Z,47.24
2019-01-27T02:34:05.157Z,47.25
2019-01-27T02:39:09.024Z,47.26
2019-01-27T02:44:12.486Z,47.26
2019-01-27T02:49:15.946Z,47.26
2019-01-27T02:54:19.414Z,47.27
2019-01-27T02:59:22.880Z,47.27
2019-01-27T03:04:26.346Z,47.27
2019-01-27T03:09:30.705Z,47.31
2019-01-27T03:14:34.161Z,47.31
2019-01-27T03:19:37.616Z,47.30
2019-01-27T03:24:41.079Z,47.36
2019-01-27T03:29:44.541Z,47.33
2019-01-27T03:34:48.013Z,47.36
2019-01-27T03:39:51.488Z,47.39
2019-01-27T03:44:54.961Z,47.36
2019-01-27T03:49:58.441Z,47.37
2019-01-27T03:55:01.923Z,47.43
2019-01-27T04:00:08.850Z,47.39
2019-01-27T04:05:12.509Z,47.42
2019-01-27T04:10:23.614Z,47.41
2019-01-27T04:15:27.085Z,47.41
2019-01-27T04:20:30.565Z,47.43
2019-01-27T04:25:34.041Z,47.45
2019-01-27T04:30:37.785Z,47.43
2019-01-27T04:35:41.258Z,47.45
2019-01-27T04:40:44.731Z,47.47
2019-01-27T04:45:48.201Z,47.45
2019-01-27T04:50:51.728Z,47.46
2019-01-27T04:55:55.235Z,47.48
2019-01-27T05:00:58.746Z,47.47
2019-01-27T05:06:02.187Z,47.48
2019-01-27T05:11:05.748Z,47.45
2019-01-27T05:16:09.225Z,47.46
2019-01-27T05:21:12.697Z,47.47
2019-01-27T05:26:16.170Z,47.48
2019-01-27T05:31:19.664Z,47.47
2019-01-27T05:36:23.143Z,47.47
2019-01-27T05:41:26.627Z,47.48
2019-01-27T05:46:30.110Z,47.50
2019-01-27T05:51:33.586Z,47.48
2019-01-27T05:56:37.062Z,47.49
2019-01-27T06:01:40.537Z,47.49
2019-01-27T06:06:44.017Z,47.53
2019-01-27T06:11:47.493Z,47.48
2019-01-27T06:16:50.978Z,47.53
2019-01-27T06:21:54.464Z,47.50
2019-01-27T06:26:57.952Z,47.48
2019-01-27T06:32:01.429Z,47.48
2019-01-27T06:37:04.906Z,47.53
2019-01-27T06:42:08.383Z,47.53
2019-01-27T06:47:11.857Z,47.50
2019-01-27T06:52:15.330Z,47.52
2019-01-27T06:57:18.807Z,47.49
2019-01-27T07:02:29.469Z,47.49
2019-01-27T07:07:33.566Z,47.52
2019-01-27T07:12:38.667Z,47.46
2019-01-27T07:17:46.705Z,47.61
2019-01-27T07:22:51.812Z,47.66
2019-01-27T07:28:08.832Z,47.62
2019-01-27T07:33:30.160Z,47.61
2019-01-27T07:38:40.942Z,47.59
2019-01-27T07:43:49.012Z,47.55
2019-01-27T07:48:56.805Z,47.53
2019-01-27T07:54:18.368Z,47.49
2019-01-27T07:59:32.284Z,46.50
2019-01-27T08:04:52.042Z,40.29
2019-01-27T08:09:57.148Z,39.36
2019-01-27T08:15:04.712Z,38.09
2019-01-27T08:20:14.732Z,33.89
2019-01-27T08:25:19.829Z,35.64
2019-01-27T08:30:41.214Z,37.79
2019-01-27T08:35:55.369Z,38.98
2019-01-27T08:41:06.410Z,39.86
2019-01-27T08:46:11.517Z,40.89
2019-01-27T08:51:14.975Z,41.18
2019-01-27T08:56:18.508Z,41.68
2019-01-27T09:01:32.429Z,42.08
2019-01-27T09:06:40.487Z,42.40
2019-01-27T09:11:48.411Z,42.67
2019-01-27T09:16:59.136Z,43.08
2019-01-27T09:22:04.474Z,43.37
2019-01-27T09:27:12.442Z,43.37
2019-01-27T09:32:20.510Z,44.01
2019-01-27T09:37:28.162Z,44.63
2019-01-27T09:42:33.261Z,45.46
2019-01-27T09:47:40.957Z,46.04
2019-01-27T09:52:46.084Z,46.31
2019-01-27T09:57:54.297Z,46.40
2019-01-27T10:03:02.367Z,46.37
2019-01-27T10:08:13.589Z,46.17
2019-01-27T10:13:18.692Z,45.90
2019-01-27T10:18:40.512Z,46.07
2019-01-27T10:24:01.711Z,46.15
2019-01-27T10:29:10.605Z,46.27
2019-01-27T10:34:28.177Z,46.34
2019-01-27T10:39:44.828Z,46.39
2019-01-27T10:45:06.359Z,46.90
2019-01-27T10:50:23.134Z,47.09
2019-01-27T10:55:40.561Z,47.46
2019-01-27T11:00:48.690Z,47.52
2019-01-27T11:06:08.838Z,47.69
2019-01-27T11:11:19.691Z,48.00
2019-01-27T11:16:42.615Z,47.91
2019-01-27T11:21:47.720Z,48.04
2019-01-27T11:26:52.821Z,48.05
2019-01-27T11:32:00.623Z,47.96
2019-01-27T11:37:11.798Z,47.98
2019-01-27T11:42:16.894Z,48.26
2019-01-27T11:47:31.437Z,48.63
2019-01-27T11:52:34.972Z,48.65
2019-01-27T11:57:38.438Z,48.75
2019-01-27T12:02:46.541Z,48.64
2019-01-27T12:07:47.151Z,49.36
2019-01-27T12:12:50.611Z,49.72
2019-01-27T12:17:54.137Z,49.73
2019-01-27T12:22:57.765Z,49.64
2019-01-27T12:28:01.241Z,49.60
2019-01-27T12:33:05.189Z,49.64
2019-01-27T12:38:09.113Z,49.79
2019-01-27T12:43:12.745Z,49.60
2019-01-27T12:48:16.665Z,49.85
2019-01-27T12:53:20.300Z,49.82
2019-01-27T12:58:23.834Z,49.85
2019-01-27T13:03:27.619Z,50.14
2019-01-27T13:08:31.541Z,49.58
2019-01-27T13:13:35.076Z,49.85
2019-01-27T13:18:38.912Z,49.71
2019-01-27T13:23:42.712Z,49.38
2019-01-27T13:28:46.430Z,49.17
2019-01-27T13:33:49.968Z,48.58
2019-01-27T13:38:53.867Z,48.42
2019-01-27T13:43:57.499Z,43.99
2019-01-27T13:49:01.034Z,42.24
2019-01-27T13:54:04.698Z,41.49
2019-01-27T13:59:08.153Z,42.42
2019-01-27T14:04:12.698Z,43.66
2019-01-27T14:09:16.157Z,44.20
2019-01-27T14:14:20.114Z,44.14
2019-01-27T14:19:23.844Z,44.17
2019-01-27T14:24:27.661Z,44.40
2019-01-27T14:29:31.686Z,44.46
2019-01-27T14:34:35.613Z,44.55
2019-01-27T14:39:39.537Z,44.63
2019-01-27T14:44:43.463Z,44.75
2019-01-27T14:49:46.990Z,44.78
2019-01-27T14:54:50.805Z,44.83
2019-01-27T14:59:54.534Z,45.36
2019-01-27T15:04:58.360Z,45.87
2019-01-27T15:10:02.179Z,46.25
2019-01-27T15:15:09.140Z,46.60
2019-01-27T15:20:19.353Z,46.74
2019-01-27T15:25:23.287Z,46.62
2019-01-27T15:30:31.917Z,46.49
2019-01-27T15:35:36.258Z,46.78
2019-01-27T15:40:40.186Z,46.49
2019-01-27T15:45:44.510Z,46.69
2019-01-27T15:50:48.059Z,46.50
2019-01-27T15:55:52.254Z,46.60
2019-01-27T16:00:56.186Z,46.31
2019-01-27T16:06:00.009Z,46.25
2019-01-27T16:11:03.836Z,46.54
2019-01-27T16:16:07.654Z,46.92
2019-01-27T16:21:11.481Z,47.11
2019-01-27T16:26:15.406Z,47.22
2019-01-27T16:31:29.798Z,47.30
2019-01-27T16:36:33.792Z,47.49
2019-01-27T16:41:37.909Z,47.71
2019-01-27T16:46:41.842Z,47.65
2019-01-27T16:51:49.132Z,48.17
2019-01-27T16:56:51.336Z,48.44
2019-01-27T17:01:59.039Z,48.72
2019-01-27T17:07:00.742Z,48.81
2019-01-27T17:12:05.050Z,48.70
2019-01-27T17:17:08.888Z,48.75
2019-01-27T17:22:12.720Z,48.56
2019-01-27T17:27:16.623Z,48.31
2019-01-27T17:32:20.651Z,48.18
2019-01-27T17:37:24.384Z,48.07
2019-01-27T17:42:28.204Z,48.10
2019-01-27T17:47:32.126Z,48.15
2019-01-27T17:52:36.051Z,48.35
2019-01-27T17:57:41.249Z,48.78
2019-01-27T18:02:49.262Z,49.19
2019-01-27T18:07:54.427Z,49.37
2019-01-27T18:12:59.574Z,49.44
2019-01-27T18:18:03.466Z,49.49
2019-01-27T18:23:07.594Z,49.46
2019-01-27T18:28:11.626Z,49.44
2019-01-27T18:33:15.842Z,49.46
2019-01-27T18:38:19.992Z,49.43
2019-01-27T18:43:24.208Z,49.42
2019-01-27T18:48:28.443Z,49.43
2019-01-27T18:53:50.006Z,49.39
2019-01-27T18:59:11.928Z,49.41
2019-01-27T19:04:29.206Z,49.37
2019-01-27T19:09:34.572Z,49.36
2019-01-27T19:14:39.933Z,49.36
2019-01-27T19:19:45.285Z,49.29
2019-01-27T19:24:59.758Z,49.32
2019-01-27T19:30:05.115Z,49.30
2019-01-27T19:35:11.191Z,49.31
2019-01-27T19:40:19.634Z,49.30
2019-01-27T19:45:25.190Z,49.28
2019-01-27T19:50:30.552Z,49.28
2019-01-27T19:55:36.021Z,49.26
2019-01-27T20:00:44.649Z,49.25
2019-01-27T20:06:08.030Z,49.26
2019-01-27T20:11:29.787Z,49.25
2019-01-27T20:16:35.127Z,49.48
2019-01-27T20:21:43.250Z,49.01
2019-01-27T20:26:48.616Z,49.01
2019-01-27T20:31:53.992Z,49.25
2019-01-27T20:37:05.375Z,49.29
2019-01-27T20:42:26.611Z,49.29
2019-01-27T20:47:31.959Z,49.30
2019-01-27T20:52:37.222Z,49.32
2019-01-27T20:57:45.033Z,49.30
2019-01-27T21:02:59.308Z,49.31
2019-01-27T21:08:16.748Z,49.27
2019-01-27T21:13:21.898Z,49.28
2019-01-27T21:18:27.162Z,49.29
2019-01-27T21:23:31.248Z,49.33
2019-01-27T21:28:35.277Z,49.34
2019-01-27T21:33:39.001Z,49.32
2019-01-27T21:38:42.924Z,49.34
2019-01-27T21:43:46.553Z,49.35
2019-01-27T21:48:50.162Z,49.34
2019-01-27T21:53:53.789Z,49.37
2019-01-27T21:58:57.372Z,49.35
2019-01-27T22:04:00.778Z,49.35
2019-01-27T22:09:07.234Z,49.37
2019-01-27T22:14:10.701Z,49.35
2019-01-27T22:19:14.162Z,49.35
2019-01-27T22:24:17.622Z,49.34
2019-01-27T22:29:21.150Z,49.32
2019-01-27T22:34:24.609Z,49.30
2019-01-27T22:39:28.067Z,49.30
2019-01-27T22:44:31.528Z,49.28
2019-01-27T22:49:34.989Z,49.32
2019-01-27T22:54:38.452Z,49.31
2019-01-27T22:59:41.913Z,49.29
2019-01-27T23:04:45.375Z,49.30
2019-01-27T23:09:48.833Z,49.31
2019-01-27T23:14:52.293Z,49.29
2019-01-27T23:19:55.754Z,49.31
2019-01-27T23:24:59.219Z,49.29
2019-01-27T23:30:03.509Z,49.25
2019-01-27T23:35:07.706Z,49.26
2019-01-27T23:40:11.449Z,49.29
2019-01-27T23:45:14.944Z,49.27
2019-01-27T23:50:18.401Z,49.28
2019-01-27T23:55:21.950Z,49.28
